Time;durP1;ratioP1;P1;durP2;ratioP2;P2;SDS_P1;SDS_P2;PMS_P1;PMS_P2;Temp;Humidity;BMP_temperature;BMP_pressure;BME280_temperature;BME280_humidity;BME280_pressure;Samples;Min_cycle;Max_cycle;Signal;HPM_P1;HPM_P2
2023/07/25 00:00:22;;;;;;;18.17;9.55;;;25.90;99.90;;;;;;5053097;28;20111;-57
2023/07/25 00:02:48;;;;;;;15.25;8.00;;;26.00;99.90;;;;;;5035466;28;20568;-58
2023/07/25 00:05:14;;;;;;;16.85;8.63;;;26.00;99.90;;;;;;5052974;28;20041;-59
2023/07/25 00:07:40;;;;;;;15.18;8.13;;;26.20;99.90;;;;;;5053143;28;20054;-58
2023/07/25 00:10:06;;;;;;;14.05;8.45;;;26.30;99.90;;;;;;5041739;28;20030;-58
2023/07/25 00:12:32;;;;;;;13.98;7.78;;;26.30;99.90;;;;;;5030820;28;20045;-58
2023/07/25 00:14:57;;;;;;;14.23;7.68;;;26.40;99.90;;;;;;5033293;28;20048;-58
2023/07/25 00:17:23;;;;;;;15.43;8.18;;;26.50;99.90;;;;;;5033042;28;20038;-57
2023/07/25 00:19:49;;;;;;;17.60;8.43;;;26.50;99.90;;;;;;5033370;28;20056;-57
2023/07/25 00:22:15;;;;;;;18.42;8.70;;;26.50;99.90;;;;;;5032984;28;20030;-58
2023/07/25 00:24:40;;;;;;;13.63;6.88;;;26.50;99.90;;;;;;5032781;28;20121;-58
2023/07/25 00:27:06;;;;;;;15.00;7.60;;;26.40;99.90;;;;;;5032989;28;20026;-58
2023/07/25 00:29:32;;;;;;;17.52;7.82;;;26.20;99.90;;;;;;5033037;28;20431;-58
2023/07/25 00:31:57;;;;;;;14.38;8.13;;;26.30;99.90;;;;;;5030666;28;20037;-57
2023/07/25 00:34:23;;;;;;;16.58;7.95;;;26.40;99.90;;;;;;5032192;28;20033;-57
2023/07/25 00:36:51;;;;;;;13.95;7.65;;;26.50;99.90;;;;;;5030483;28;20542;-58
2023/07/25 00:39:17;;;;;;;15.98;7.75;;;26.60;99.90;;;;;;5032957;28;20488;-57
2023/07/25 00:41:42;;;;;;;18.67;8.95;;;26.60;99.90;;;;;;5032383;28;20037;-57
2023/07/25 00:44:08;;;;;;;15.45;8.38;;;26.70;99.90;;;;;;5032431;28;20033;-58
2023/07/25 00:46:34;;;;;;;18.92;8.63;;;26.60;99.90;;;;;;5032122;28;20396;-58
2023/07/25 00:49:01;;;;;;;15.27;9.05;;;26.60;99.90;;;;;;5032441;28;20436;-57
2023/07/25 00:51:30;;;;;;;15.93;9.77;;;26.50;99.90;;;;;;5032667;28;20034;-57
2023/07/25 00:53:56;;;;;;;23.20;14.63;;;26.50;99.90;;;;;;5032344;28;20033;-58
2023/07/25 00:56:22;;;;;;;24.10;14.85;;;26.40;99.90;;;;;;5032247;28;20124;-58
2023/07/25 00:58:48;;;;;;;23.33;13.05;;;26.40;99.90;;;;;;5032206;28;20022;-58
2023/07/25 01:01:14;;;;;;;21.35;12.55;;;26.40;99.90;;;;;;5050204;28;20548;-57
2023/07/25 01:03:40;;;;;;;17.65;11.10;;;26.40;99.90;;;;;;5052075;28;20039;-58
2023/07/25 01:06:11;;;;;;;18.25;11.55;;;26.40;99.90;;;;;;5052581;28;20404;-58
2023/07/25 01:08:51;;;;;;;16.52;10.30;;;26.30;99.90;;;;;;5051694;28;20594;-58
2023/07/25 01:11:17;;;;;;;15.55;9.75;;;26.20;99.90;;;;;;5052379;28;20029;-57
2023/07/25 01:13:43;;;;;;;16.65;10.95;;;26.30;99.90;;;;;;5049818;28;20040;-58
2023/07/25 01:16:12;;;;;;;19.67;10.43;;;26.40;99.90;;;;;;5052158;28;20036;-57
2023/07/25 01:18:38;;;;;;;17.55;10.13;;;26.20;99.90;;;;;;5050671;28;20377;-57
2023/07/25 01:21:04;;;;;;;21.05;9.88;;;26.20;99.90;;;;;;5033307;28;20039;-58
2023/07/25 01:23:30;;;;;;;14.93;8.48;;;26.20;99.90;;;;;;5051946;28;20129;-57
2023/07/25 01:25:56;;;;;;;16.08;10.98;;;25.90;99.90;;;;;;5052134;28;20037;-57
2023/07/25 01:28:22;;;;;;;18.90;11.13;;;25.80;99.90;;;;;;5051946;28;20094;-57
2023/07/25 01:30:48;;;;;;;21.02;11.73;;;25.70;99.90;;;;;;5052257;28;20037;-57
2023/07/25 01:33:14;;;;;;;19.85;10.93;;;25.80;99.90;;;;;;5052405;28;20350;-57
2023/07/25 01:35:40;;;;;;;15.88;10.88;;;25.70;99.90;;;;;;5052280;28;20064;-57
2023/07/25 01:38:05;;;;;;;20.75;11.85;;;25.70;99.90;;;;;;5051793;28;20033;-57
2023/07/25 01:40:31;;;;;;;20.77;13.35;;;25.90;99.90;;;;;;5032862;28;20053;-57
2023/07/25 01:42:57;;;;;;;20.08;12.00;;;26.00;99.90;;;;;;5051749;28;20037;-57
2023/07/25 01:45:23;;;;;;;21.52;11.65;;;25.90;99.90;;;;;;5051767;28;20037;-57
2023/07/25 01:47:48;;;;;;;16.92;12.18;;;25.80;99.90;;;;;;5051532;28;20472;-57
2023/07/25 01:50:15;;;;;;;20.77;13.88;;;25.80;99.90;;;;;;5051582;28;20036;-57
2023/07/25 01:52:41;;;;;;;19.88;12.65;;;25.70;99.90;;;;;;5051740;28;20029;-57
2023/07/25 01:55:07;;;;;;;19.67;12.02;;;25.60;99.90;;;;;;5051652;28;20551;-57
2023/07/25 01:57:33;;;;;;;20.88;13.63;;;25.70;99.90;;;;;;5019955;28;20078;-56
2023/07/25 01:59:58;;;;;;;17.60;13.52;;;25.70;99.90;;;;;;5012803;28;20494;-58
2023/07/25 02:02:24;;;;;;;20.10;13.82;;;25.80;99.90;;;;;;4952208;28;20038;-57
2023/07/25 02:04:50;;;;;;;20.13;13.50;;;25.70;99.90;;;;;;5017021;28;20488;-58
2023/07/25 02:07:15;;;;;;;19.90;12.80;;;25.70;99.90;;;;;;5035802;28;20111;-58
2023/07/25 02:09:41;;;;;;;18.25;12.93;;;25.80;99.90;;;;;;4984537;28;20057;-57
2023/07/25 02:12:08;;;;;;;20.75;12.10;;;25.90;99.90;;;;;;5035613;28;20032;-56
2023/07/25 02:14:34;;;;;;;17.10;12.45;;;26.00;99.90;;;;;;4984361;28;20034;-57
2023/07/25 02:16:59;;;;;;;18.88;13.13;;;25.80;99.90;;;;;;5035547;28;20021;-56
2023/07/25 02:19:25;;;;;;;19.67;13.55;;;25.70;99.90;;;;;;5035560;28;20033;-58
2023/07/25 02:21:51;;;;;;;18.40;12.75;;;25.80;99.90;;;;;;5035472;28;20029;-58
2023/07/25 02:24:17;;;;;;;19.52;13.45;;;25.70;99.90;;;;;;5035243;28;20446;-57
2023/07/25 02:26:42;;;;;;;18.55;12.18;;;25.40;99.90;;;;;;5035318;28;20029;-57
2023/07/25 02:29:08;;;;;;;16.75;11.85;;;25.40;99.90;;;;;;5035551;28;20361;-56
2023/07/25 02:31:34;;;;;;;20.60;12.93;;;25.20;99.90;;;;;;5035221;28;20036;-57
2023/07/25 02:34:01;;;;;;;18.40;13.18;;;25.40;99.90;;;;;;5035251;28;20152;-58
2023/07/25 02:36:27;;;;;;;22.42;14.65;;;25.50;99.90;;;;;;5035214;28;20032;-57
2023/07/25 02:38:52;;;;;;;15.98;12.68;;;25.50;99.90;;;;;;5035288;28;20605;-58
2023/07/25 02:41:18;;;;;;;18.38;13.00;;;25.60;99.90;;;;;;5035133;28;20025;-57
2023/07/25 02:43:45;;;;;;;21.42;12.77;;;25.30;99.90;;;;;;5034908;28;20033;-57
2023/07/25 02:46:10;;;;;;;18.42;13.05;;;25.40;99.90;;;;;;5034823;28;20030;-57
2023/07/25 02:48:36;;;;;;;21.55;12.63;;;25.40;99.90;;;;;;5034739;28;20028;-58
2023/07/25 02:51:02;;;;;;;19.40;12.95;;;25.50;99.90;;;;;;4999821;28;20396;-57
2023/07/25 02:53:28;;;;;;;19.77;12.77;;;25.60;99.90;;;;;;5034837;28;20026;-57
2023/07/25 02:55:54;;;;;;;17.08;12.43;;;25.60;99.90;;;;;;5034976;28;20026;-57
2023/07/25 02:58:20;;;;;;;17.63;12.63;;;25.60;99.90;;;;;;5034708;28;20076;-57
2023/07/25 03:00:48;;;;;;;19.88;13.43;;;25.50;99.90;;;;;;4999331;28;20065;-57
2023/07/25 03:03:14;;;;;;;19.83;12.57;;;25.50;99.90;;;;;;5034685;28;20063;-57
2023/07/25 03:05:39;;;;;;;22.27;12.75;;;25.40;99.90;;;;;;5034415;28;20026;-58
2023/07/25 03:08:05;;;;;;;16.92;11.40;;;25.40;99.90;;;;;;5033394;28;20416;-59
2023/07/25 03:10:32;;;;;;;16.92;12.07;;;25.50;99.90;;;;;;5034359;28;20104;-57
2023/07/25 03:12:57;;;;;;;27.90;12.25;;;25.50;99.90;;;;;;5034698;28;20049;-57
2023/07/25 03:15:23;;;;;;;20.02;11.70;;;25.40;99.90;;;;;;5034197;28;20442;-57
2023/07/25 03:17:49;;;;;;;20.90;11.20;;;25.40;99.90;;;;;;5034368;28;20539;-57
2023/07/25 03:20:15;;;;;;;17.30;11.20;;;25.40;99.90;;;;;;5006467;28;20026;-57
2023/07/25 03:22:41;;;;;;;20.25;11.80;;;25.30;99.90;;;;;;4994811;28;20479;-56
2023/07/25 03:25:08;;;;;;;20.88;11.40;;;25.30;99.90;;;;;;4999629;28;20027;-56
2023/07/25 03:27:34;;;;;;;20.48;11.32;;;25.30;99.90;;;;;;4984157;28;20042;-57
2023/07/25 03:29:59;;;;;;;14.52;10.52;;;25.30;99.90;;;;;;5001169;28;20018;-56
2023/07/25 03:32:25;;;;;;;16.25;11.50;;;25.30;99.90;;;;;;5004582;28;20025;-58
2023/07/25 03:34:51;;;;;;;21.40;10.95;;;25.40;99.90;;;;;;5003031;28;20053;-56
2023/07/25 03:37:17;;;;;;;22.10;12.18;;;25.40;99.90;;;;;;5004871;28;20097;-57
2023/07/25 03:39:42;;;;;;;20.50;11.57;;;25.50;99.90;;;;;;5002769;28;20021;-57
2023/07/25 03:42:08;;;;;;;20.75;10.68;;;25.50;99.90;;;;;;5014127;28;20030;-56
2023/07/25 03:44:34;;;;;;;17.23;10.40;;;25.60;99.90;;;;;;4947063;28;20065;-57
2023/07/25 03:46:59;;;;;;;21.50;10.20;;;25.60;99.90;;;;;;5014303;28;20022;-56
2023/07/25 03:49:25;;;;;;;18.75;10.82;;;25.60;99.90;;;;;;5014066;28;20032;-56
2023/07/25 03:51:51;;;;;;;17.83;10.82;;;25.70;99.90;;;;;;4963544;28;20029;-56
2023/07/25 03:54:18;;;;;;;19.98;11.18;;;25.60;99.90;;;;;;5014092;28;20395;-57
2023/07/25 03:56:44;;;;;;;18.85;11.57;;;25.60;99.90;;;;;;5013699;28;20823;-57
2023/07/25 03:59:10;;;;;;;22.02;10.77;;;25.70;99.90;;;;;;5014715;28;20117;-57
2023/07/25 04:01:36;;;;;;;20.45;10.63;;;25.80;99.90;;;;;;5033709;28;20112;-56
2023/07/25 04:04:01;;;;;;;23.98;11.13;;;25.90;99.90;;;;;;5033538;28;20037;-56
2023/07/25 04:06:27;;;;;;;22.85;10.85;;;26.00;99.90;;;;;;5033215;28;20036;-56
2023/07/25 04:08:53;;;;;;;22.02;10.60;;;26.00;99.90;;;;;;5033467;28;20061;-56
2023/07/25 04:11:19;;;;;;;21.10;10.82;;;26.10;99.90;;;;;;5033413;28;20033;-57
2023/07/25 04:13:44;;;;;;;19.38;10.40;;;26.00;99.90;;;;;;5033123;28;20492;-57
2023/07/25 04:16:10;;;;;;;20.42;11.35;;;26.00;99.90;;;;;;5033011;28;20491;-57
2023/07/25 04:18:36;;;;;;;19.23;10.90;;;26.20;99.90;;;;;;5033117;28;20113;-56
2023/07/25 04:21:02;;;;;;;17.73;11.07;;;26.10;99.90;;;;;;5025317;28;20104;-57
2023/07/25 04:23:28;;;;;;;19.92;11.15;;;26.00;99.90;;;;;;5015124;28;20056;-58
2023/07/25 04:25:53;;;;;;;20.02;11.32;;;26.00;99.90;;;;;;5016829;28;20032;-57
2023/07/25 04:28:19;;;;;;;20.88;10.90;;;26.00;99.90;;;;;;5017787;28;20037;-56
2023/07/25 04:30:45;;;;;;;21.27;11.30;;;26.10;99.90;;;;;;5040650;28;20038;-57
2023/07/25 04:33:10;;;;;;;20.60;12.13;;;26.20;99.90;;;;;;5013708;28;20029;-57
2023/07/25 04:35:36;;;;;;;21.75;10.95;;;26.40;99.90;;;;;;5019413;28;20108;-58
2023/07/25 04:38:02;;;;;;;18.48;10.98;;;26.60;99.90;;;;;;5022899;28;20021;-58
2023/07/25 04:40:29;;;;;;;19.73;12.13;;;26.70;99.90;;;;;;4986364;28;20034;-58
2023/07/25 04:42:55;;;;;;;18.77;11.10;;;26.80;99.90;;;;;;5020413;28;20048;-58
2023/07/25 04:45:20;;;;;;;22.35;11.77;;;26.90;99.90;;;;;;4990663;28;20042;-58
2023/07/25 04:47:46;;;;;;;18.83;11.15;;;27.00;99.90;;;;;;5025213;28;20037;-58
2023/07/25 04:50:12;;;;;;;20.73;11.60;;;27.10;99.90;;;;;;5032861;28;20029;-58
2023/07/25 04:52:37;;;;;;;17.13;11.60;;;27.10;99.90;;;;;;5028467;28;20026;-57
2023/07/25 04:55:03;;;;;;;18.92;11.38;;;27.20;99.90;;;;;;5021876;28;20029;-58
2023/07/25 04:57:29;;;;;;;18.92;12.23;;;27.30;99.90;;;;;;4968784;28;20073;-57
2023/07/25 04:59:55;;;;;;;18.35;10.50;;;;;;;;;;5020725;28;20140;-57
2023/07/25 05:02:21;;;;;;;19.02;10.93;;;;;;;;;;5022428;28;20079;-57
2023/07/25 05:04:47;;;;;;;15.65;10.40;;;;;;;;;;5014648;28;20057;-57
2023/07/25 05:07:14;;;;;;;16.83;10.23;;;;;;;;;;5012500;28;20053;-57
2023/07/25 05:09:40;;;;;;;15.90;10.10;;;;;;;;;;5012399;28;20034;-59
2023/07/25 05:12:07;;;;;;;15.85;10.60;;;;;;;;;;5016683;28;20031;-58
2023/07/25 05:14:33;;;;;;;24.38;10.85;;;27.70;99.90;;;;;;5019451;28;20072;-59
2023/07/25 05:16:59;;;;;;;18.38;10.10;;;;;;;;;;5025324;28;20037;-54
2023/07/25 05:19:25;;;;;;;17.80;10.60;;;;;;;;;;5017995;28;20037;-61
2023/07/25 05:21:51;;;;;;;21.35;10.57;;;;;;;;;;5018915;28;20040;-58
2023/07/25 05:24:16;;;;;;;13.50;10.10;;;28.10;99.90;;;;;;5019784;28;20073;-60
2023/07/25 05:26:42;;;;;;;15.98;9.63;;;28.20;99.90;;;;;;5018580;28;20433;-57
2023/07/25 05:29:08;;;;;;;12.65;8.80;;;;;;;;;;5024165;28;20029;-61
2023/07/25 05:31:34;;;;;;;12.23;8.77;;;28.50;99.90;;;;;;4980366;28;20046;-59
2023/07/25 05:34:00;;;;;;;20.33;9.60;;;28.50;99.90;;;;;;4981730;28;20197;-60
2023/07/25 05:36:26;;;;;;;18.40;10.50;;;;;;;;;;5015027;28;20071;-60
2023/07/25 05:38:52;;;;;;;17.13;11.23;;;28.60;99.90;;;;;;5017655;28;20029;-61
2023/07/25 05:41:18;;;;;;;20.30;11.13;;;28.40;99.90;;;;;;4989846;28;20045;-61
2023/07/25 05:43:44;;;;;;;15.57;10.35;;;28.40;99.90;;;;;;5023652;28;20528;-60
2023/07/25 05:46:10;;;;;;;15.73;10.18;;;28.40;99.90;;;;;;4974401;28;20080;-58
2023/07/25 05:48:35;;;;;;;16.90;10.35;;;28.60;99.90;;;;;;5021413;28;20041;-59
2023/07/25 05:51:01;;;;;;;21.08;10.38;;;28.60;99.90;;;;;;5027774;28;20080;-60
2023/07/25 05:53:27;;;;;;;17.70;9.82;;;28.60;99.90;;;;;;5020096;28;20374;-60
2023/07/25 05:55:52;;;;;;;15.45;9.50;;;28.60;99.90;;;;;;5021630;28;20029;-61
2023/07/25 05:58:19;;;;;;;13.70;9.43;;;28.70;99.90;;;;;;5017511;28;20503;-58
2023/07/25 06:00:45;;;;;;;20.08;10.15;;;;;;;;;;5019189;28;20080;-60
2023/07/25 06:03:13;;;;;;;16.08;9.90;;;;;;;;;;5024875;28;20497;-59
2023/07/25 06:05:39;;;;;;;14.15;9.70;;;;;;;;;;5022124;28;20040;-58
2023/07/25 06:08:05;;;;;;;15.52;10.07;;;;;;;;;;5018297;28;20137;-58
2023/07/25 06:10:32;;;;;;;16.08;10.48;;;;;;;;;;5018759;28;20053;-59
2023/07/25 06:12:58;;;;;;;14.38;9.77;;;;;;;;;;5024226;28;20029;-60
2023/07/25 06:15:24;;;;;;;16.48;10.10;;;;;;;;;;5022632;28;20516;-58
2023/07/25 06:17:51;;;;;;;18.15;10.95;;;;;;;;;;5020339;28;20029;-60
2023/07/25 06:20:17;;;;;;;24.50;12.20;;;;;;;;;;5020739;28;20033;-61
2023/07/25 06:22:43;;;;;;;16.38;11.40;;;;;;;;;;5022958;28;20030;-57
2023/07/25 06:25:09;;;;;;;22.27;11.00;;;;;;;;;;5025453;28;20059;-59
2023/07/25 06:27:35;;;;;;;15.77;9.35;;;;;;;;;;5019310;28;20448;-60
2023/07/25 06:30:02;;;;;;;22.95;14.00;;;;;;;;;;5020684;28;20055;-60
2023/07/25 06:32:30;;;;;;;17.67;11.40;;;;;;;;;;5024797;28;20088;-58
2023/07/25 06:34:56;;;;;;;13.93;9.73;;;;;;;;;;5024886;28;20040;-59
2023/07/25 06:37:22;;;;;;;16.92;11.75;;;;;;;;;;5022652;28;20030;-59
2023/07/25 06:39:48;;;;;;;35.08;14.63;;;;;;;;;;5020311;28;21270;-59
2023/07/25 06:42:14;;;;;;;27.38;14.15;;;;;;;;;;5022946;28;20038;-58
2023/07/25 06:44:40;;;;;;;21.92;11.60;;;;;;;;;;5026738;28;20029;-58
2023/07/25 06:47:07;;;;;;;20.50;11.85;;;;;;;;;;4996976;28;20105;-59
2023/07/25 06:49:33;;;;;;;22.08;11.95;;;;;;;;;;5028237;28;20408;-59
2023/07/25 06:52:00;;;;;;;33.33;15.23;;;;;;;;;;5029030;28;20496;-57
2023/07/25 06:54:26;;;;;;;16.23;11.55;;;;;;;;;;5027817;28;20436;-59
2023/07/25 10:28:23;;;;;;;23.88;6.68;;;38.90;99.90;;;;;;5093428;27;20406;-58
2023/07/25 10:30:49;;;;;;;17.17;5.28;;;;;;;;;;5087729;28;20044;-58
2023/07/25 10:33:16;;;;;;;13.63;5.35;;;39.20;99.90;;;;;;5112008;28;20039;-57
2023/07/25 10:35:54;;;;;;;18.63;6.45;;;39.30;99.90;;;;;;5095693;28;20020;-60
2023/07/25 10:38:35;;;;;;;12.00;5.22;;;;;;;;;;5112942;27;20502;-58
2023/07/25 10:41:11;;;;;;;17.20;5.32;;;39.70;99.90;;;;;;5114498;27;20460;-58
2023/07/25 10:43:59;;;;;;;14.25;5.32;;;39.20;99.90;;;;;;5106035;27;20054;-56
2023/07/25 10:46:30;;;;;;;13.27;5.25;;;39.50;99.90;;;;;;5117769;27;20035;-54
2023/07/25 10:49:02;;;;;;;18.00;6.20;;;39.60;99.90;;;;;;5117913;27;20520;-59
2023/07/25 10:51:51;;;;;;;12.07;4.70;;;39.80;99.90;;;;;;5120694;27;20035;-59
2023/07/25 10:54:18;;;;;;;19.27;6.15;;;39.30;99.90;;;;;;5113112;27;20067;-55
2023/07/25 10:57:17;;;;;;;16.42;6.20;;;39.40;99.90;;;;;;5114172;27;20031;-57
2023/07/25 10:59:59;;;;;;;15.80;4.97;;;39.30;99.90;;;;;;5123666;27;20627;-56
2023/07/25 11:02:29;;;;;;;15.85;5.32;;;39.30;99.90;;;;;;5107201;28;20060;-56
2023/07/25 11:05:12;;;;;;;19.23;5.65;;;39.30;99.90;;;;;;5116818;28;20051;-56
2023/07/25 11:07:39;;;;;;;12.55;4.63;;;39.60;99.90;;;;;;5125376;27;20130;-58
2023/07/25 11:10:06;;;;;;;15.88;5.28;;;39.60;99.90;;;;;;5104062;28;20093;-57
2023/07/25 11:12:32;;;;;;;17.38;5.32;;;39.30;99.90;;;;;;5105429;28;20545;-56
2023/07/25 11:14:58;;;;;;;11.82;4.40;;;39.10;99.90;;;;;;5108070;28;20115;-55
2023/07/25 11:17:27;;;;;;;26.15;6.53;;;38.90;99.90;;;;;;5107835;28;20100;-58
2023/07/25 11:19:53;;;;;;;18.98;6.07;;;38.90;99.90;;;;;;5101661;28;20031;-56
2023/07/25 11:22:19;;;;;;;19.73;5.93;;;38.80;99.90;;;;;;5086585;28;20502;-57
2023/07/25 11:24:48;;;;;;;15.70;5.63;;;;;;;;;;5087510;28;20032;-57
2023/07/25 11:27:14;;;;;;;12.60;5.50;;;38.30;99.90;;;;;;5087808;28;20059;-58
2023/07/25 11:29:41;;;;;;;11.18;5.32;;;;;;;;;;5107613;28;20074;-55
2023/07/25 11:32:07;;;;;;;13.32;5.20;;;37.70;99.90;;;;;;5102014;28;20053;-58
2023/07/25 11:34:33;;;;;;;14.23;4.95;;;37.70;99.90;;;;;;5084154;28;20040;-57
2023/07/25 11:36:59;;;;;;;14.95;5.18;;;37.60;99.90;;;;;;5087306;28;20028;-56
2023/07/25 11:39:24;;;;;;;13.57;5.72;;;37.70;99.90;;;;;;5075592;28;20027;-59
2023/07/25 11:41:50;;;;;;;12.00;5.07;;;37.60;99.90;;;;;;5073531;28;20025;-57
2023/07/25 11:44:18;;;;;;;18.20;5.60;;;37.60;99.90;;;;;;5052719;28;20141;-58
2023/07/25 11:46:50;;;;;;;32.90;7.45;;;37.30;99.90;;;;;;5072541;28;20040;-58
2023/07/25 11:49:17;;;;;;;15.98;5.57;;;;;;;;;;5073589;28;20061;-57
2023/07/25 11:51:44;;;;;;;14.55;5.38;;;36.90;99.90;;;;;;5073394;28;20544;-58
2023/07/25 11:54:10;;;;;;;17.65;6.15;;;36.60;99.90;;;;;;5089116;28;20085;-57
2023/07/25 11:56:37;;;;;;;15.93;5.10;;;36.40;99.90;;;;;;5073298;28;20419;-59
2023/07/25 11:59:03;;;;;;;43.40;38.97;;;35.90;99.90;;;;;;5052029;28;20048;-57
2023/07/25 12:01:31;;;;;;;14.20;6.75;;;35.70;99.90;;;;;;5073208;28;20036;-58
2023/07/25 12:04:00;;;;;;;19.50;6.10;;;35.60;99.90;;;;;;5073162;28;20061;-56
2023/07/25 12:06:28;;;;;;;15.80;6.07;;;35.60;99.90;;;;;;5079813;28;20044;-59
2023/07/25 12:08:54;;;;;;;17.30;5.82;;;35.60;99.90;;;;;;5082386;28;20391;-66
2023/07/25 12:11:21;;;;;;;14.57;6.95;;;;;;;;;;5084698;28;20028;-63
2023/07/25 12:13:50;;;;;;;19.30;10.77;;;34.20;99.90;;;;;;5091091;28;20083;-61
2023/07/25 12:16:45;;;;;;;23.83;10.65;;;34.00;99.90;;;;;;5092454;28;20022;-59
2023/07/25 12:19:13;;;;;;;18.98;11.02;;;34.10;99.90;;;;;;5086444;28;20440;-63
2023/07/25 12:21:41;;;;;;;17.02;10.10;;;34.20;99.90;;;;;;5079843;28;20658;-64
2023/07/25 12:24:08;;;;;;;21.30;11.02;;;34.10;99.90;;;;;;5087855;28;20360;-60
2023/07/25 12:26:44;;;;;;;18.05;10.00;;;34.20;99.90;;;;;;5049823;28;20056;-57
2023/07/25 12:29:26;;;;;;;19.95;8.98;;;34.10;99.90;;;;;;5069684;28;20068;-60
2023/07/25 12:31:54;;;;;;;17.15;10.18;;;33.80;99.90;;;;;;5068140;28;20120;-57
2023/07/25 12:34:21;;;;;;;23.95;12.80;;;;;;;;;;5055996;28;20178;-59
2023/07/25 12:36:47;;;;;;;16.75;10.07;;;;;;;;;;5065756;28;20036;-57
2023/07/25 12:39:14;;;;;;;19.52;9.77;;;;;;;;;;5064995;28;20036;-54
2023/07/25 12:41:43;;;;;;;15.75;9.70;;;;;;;;;;5068016;28;20032;-59
2023/07/25 12:44:09;;;;;;;16.90;9.70;;;;;;;;;;5064255;28;20360;-56
2023/07/25 12:46:38;;;;;;;17.00;9.93;;;;;;;;;;5046124;28;20160;-58
2023/07/25 12:49:04;;;;;;;20.50;9.98;;;;;;;;;;5049330;28;20037;-60
2023/07/25 12:51:30;;;;;;;15.77;9.45;;;;;;;;;;5048957;28;20040;-58
2023/07/25 12:53:56;;;;;;;20.10;10.18;;;33.00;99.90;;;;;;5029834;28;20041;-56
2023/07/25 12:56:21;;;;;;;14.98;7.97;;;33.10;99.90;;;;;;5029328;28;20033;-56
2023/07/25 12:58:47;;;;;;;21.50;9.80;;;32.90;99.90;;;;;;5065425;28;20043;-57
2023/07/25 13:01:13;;;;;;;23.63;11.98;;;32.90;99.90;;;;;;5069173;28;20060;-60
2023/07/25 13:03:42;;;;;;;18.08;8.07;;;32.80;99.90;;;;;;5069547;28;20730;-56
2023/07/25 13:06:07;;;;;;;15.88;8.43;;;32.70;99.90;;;;;;5069439;28;20522;-57
2023/07/25 13:08:34;;;;;;;16.42;8.85;;;32.60;99.90;;;;;;5068358;28;20039;-56
2023/07/25 13:11:00;;;;;;;14.30;7.43;;;32.80;99.90;;;;;;5066767;28;20430;-57
2023/07/25 13:13:26;;;;;;;14.55;6.13;;;32.80;99.90;;;;;;5069011;28;20032;-59
2023/07/25 13:15:52;;;;;;;15.68;5.80;;;32.60;99.90;;;;;;5069399;28;20058;-59
2023/07/25 13:18:18;;;;;;;13.75;5.80;;;32.60;99.90;;;;;;5068703;28;20070;-58
2023/07/25 13:20:44;;;;;;;14.23;5.95;;;;;;;;;;5067367;28;20032;-58
2023/07/25 13:23:12;;;;;;;11.35;5.72;;;32.20;99.90;;;;;;5068167;28;20115;-58
2023/07/25 13:25:39;;;;;;;8.98;3.80;;;31.30;99.90;;;;;;5068907;28;20480;-58
2023/07/25 13:28:04;;;;;;;10.02;4.07;;;30.40;99.90;;;;;;5068961;28;20056;-57
2023/07/25 13:30:31;;;;;;;11.30;3.85;;;;;;;;;;5052049;28;20093;-57
2023/07/25 13:32:57;;;;;;;11.32;4.00;;;;;;;;;;5069193;28;20024;-57
2023/07/25 13:35:23;;;;;;;9.30;4.53;;;29.50;99.90;;;;;;5071152;28;20032;-58
2023/07/25 13:37:48;;;;;;;17.77;5.32;;;29.50;99.90;;;;;;5068812;28;20680;-60
2023/07/25 13:40:14;;;;;;;10.77;4.50;;;29.70;99.90;;;;;;5018348;28;20043;-56
2023/07/25 13:43:00;;;;;;;15.60;5.45;;;29.80;99.90;;;;;;5001304;28;20068;-58
2023/07/25 13:45:27;;;;;;;14.25;4.03;;;29.90;99.90;;;;;;5025991;28;20064;-60
2023/07/25 13:47:53;;;;;;;9.90;3.90;;;;;;;;;;5028456;28;20049;-59
2023/07/25 13:50:18;;;;;;;12.02;4.18;;;30.60;99.90;;;;;;5027966;28;20021;-56
2023/07/25 13:52:45;;;;;;;9.48;3.78;;;30.50;99.90;;;;;;5028563;28;20481;-59
2023/07/25 13:55:10;;;;;;;9.90;4.93;;;30.50;99.90;;;;;;5028564;28;20033;-58
2023/07/25 13:57:36;;;;;;;8.32;4.22;;;;;;;;;;5025742;28;20437;-57
2023/07/25 14:00:03;;;;;;;8.50;3.67;;;31.10;99.90;;;;;;5027033;28;20075;-56
2023/07/25 14:02:29;;;;;;;12.98;4.32;;;;;;;;;;5014155;28;20170;-55
2023/07/25 14:04:55;;;;;;;9.50;3.75;;;31.10;99.90;;;;;;5043921;28;20040;-60
2023/07/25 14:07:20;;;;;;;9.80;4.32;;;31.30;99.90;;;;;;5046936;28;20041;-58
2023/07/25 14:09:46;;;;;;;13.70;4.63;;;31.30;99.90;;;;;;5007073;28;20115;-57
2023/07/25 14:12:12;;;;;;;11.40;4.35;;;31.10;99.90;;;;;;5027231;28;20241;-56
2023/07/25 14:14:38;;;;;;;11.82;4.28;;;;;;;;;;5057742;28;20036;-56
2023/07/25 14:17:05;;;;;;;9.95;4.47;;;31.80;99.90;;;;;;5068390;28;20048;-57
2023/07/25 14:19:31;;;;;;;9.65;3.75;;;31.90;99.90;;;;;;5067987;28;20036;-56
2023/07/25 14:21:57;;;;;;;8.70;3.53;;;31.90;99.90;;;;;;5043507;28;20094;-56
2023/07/25 14:24:23;;;;;;;12.52;4.18;;;31.80;99.90;;;;;;5048055;28;20150;-57
2023/07/25 14:26:49;;;;;;;13.20;4.00;;;31.90;99.90;;;;;;5047991;28;20427;-56
2023/07/25 14:29:15;;;;;;;9.05;4.75;;;31.70;99.90;;;;;;5048077;28;20037;-56
2023/07/25 14:31:41;;;;;;;11.18;4.10;;;31.70;99.90;;;;;;5048126;28;20029;-56
2023/07/25 14:34:06;;;;;;;8.25;4.18;;;31.80;99.90;;;;;;5028339;28;20391;-56
2023/07/25 14:36:32;;;;;;;13.43;4.22;;;31.80;99.90;;;;;;5060850;28;20113;-56
2023/07/25 14:38:58;;;;;;;9.80;4.63;;;31.90;99.90;;;;;;5061470;28;20079;-57
2023/07/25 14:41:24;;;;;;;12.45;4.22;;;32.00;99.90;;;;;;5084684;28;20059;-56
2023/07/25 14:43:50;;;;;;;17.33;4.65;;;31.90;99.90;;;;;;5076789;28;21273;-57
2023/07/25 14:46:15;;;;;;;11.35;4.15;;;31.90;99.90;;;;;;5075928;28;20043;-56
2023/07/25 14:48:41;;;;;;;11.80;5.18;;;31.80;99.90;;;;;;5078176;28;20036;-58
2023/07/25 14:51:07;;;;;;;11.05;5.00;;;31.90;99.90;;;;;;5081799;28;20026;-57
2023/07/25 14:53:33;;;;;;;9.65;4.00;;;32.10;99.90;;;;;;5081128;28;20020;-59
2023/07/25 14:55:59;;;;;;;10.70;4.28;;;31.90;99.90;;;;;;5076944;28;20085;-57
2023/07/25 14:58:25;;;;;;;10.50;4.35;;;;;;;;;;5071334;28;20029;-57
2023/07/25 15:00:50;;;;;;;10.43;3.58;;;32.10;99.90;;;;;;5071875;28;20031;-56
2023/07/25 15:03:16;;;;;;;10.63;4.05;;;32.10;99.90;;;;;;5093129;28;20491;-57
2023/07/25 15:05:42;;;;;;;13.43;4.50;;;32.00;99.90;;;;;;5073924;28;20020;-56
2023/07/25 15:08:08;;;;;;;8.10;3.72;;;31.70;99.90;;;;;;5078475;28;20093;-56
2023/07/25 15:10:33;;;;;;;13.63;4.20;;;31.20;99.90;;;;;;5088529;28;20090;-56
2023/07/25 15:12:59;;;;;;;12.73;4.43;;;31.10;99.90;;;;;;5101631;28;20473;-56
2023/07/25 15:15:25;;;;;;;10.75;4.35;;;30.70;99.90;;;;;;5099841;28;20082;-56
2023/07/25 15:17:51;;;;;;;11.63;3.67;;;30.10;99.90;;;;;;5100031;28;20063;-56
2023/07/25 15:20:20;;;;;;;8.18;3.90;;;30.30;99.90;;;;;;5081262;28;20463;-57
2023/07/25 15:22:46;;;;;;;8.50;4.18;;;;;;;;;;5076642;28;20479;-57
2023/07/25 15:25:12;;;;;;;6.57;2.97;;;30.30;99.90;;;;;;5084207;28;20043;-56
2023/07/25 15:27:39;;;;;;;12.07;4.00;;;30.00;99.90;;;;;;5083557;28;20411;-56
2023/07/25 15:30:05;;;;;;;11.25;3.50;;;30.20;99.90;;;;;;5099450;28;20072;-56
2023/07/25 15:32:31;;;;;;;5.47;3.58;;;30.60;99.90;;;;;;5095312;28;20040;-56
2023/07/25 15:34:57;;;;;;;11.65;3.67;;;30.70;99.90;;;;;;5092816;28;20036;-59
2023/07/25 15:37:23;;;;;;;9.35;3.60;;;31.10;99.90;;;;;;5088953;28;20080;-57
2023/07/25 15:39:48;;;;;;;8.35;3.35;;;30.60;99.90;;;;;;5083961;28;20032;-58
2023/07/25 15:42:14;;;;;;;8.93;3.47;;;;;;;;;;5078596;28;20036;-56
2023/07/25 15:44:40;;;;;;;9.57;4.13;;;30.10;99.90;;;;;;5074895;28;20141;-59
2023/07/25 15:47:06;;;;;;;7.22;3.72;;;30.20;99.90;;;;;;5076754;28;20646;-60
2023/07/25 15:49:32;;;;;;;7.53;3.28;;;30.30;99.90;;;;;;5082183;28;20106;-60
2023/07/25 15:51:58;;;;;;;7.78;3.33;;;29.90;99.90;;;;;;5078138;28;20369;-60
2023/07/25 15:54:24;;;;;;;9.75;3.92;;;29.90;99.90;;;;;;5102494;28;20570;-60
2023/07/25 15:56:49;;;;;;;7.78;3.90;;;30.00;99.90;;;;;;5081072;28;20030;-60
2023/07/25 15:59:15;;;;;;;13.35;4.53;;;29.90;99.90;;;;;;5075370;28;20028;-59
2023/07/25 16:01:41;;;;;;;9.07;3.60;;;29.90;99.90;;;;;;5079736;28;20032;-59
2023/07/25 16:04:10;;;;;;;8.45;3.33;;;29.80;99.90;;;;;;5079445;28;20696;-60
2023/07/25 16:06:36;;;;;;;9.35;3.80;;;30.00;99.90;;;;;;5082671;28;20036;-63
2023/07/25 16:09:02;;;;;;;12.73;3.83;;;30.00;99.90;;;;;;5076906;28;20074;-60
2023/07/25 16:11:28;;;;;;;10.70;3.40;;;29.90;99.90;;;;;;5080869;28;20035;-58
2023/07/25 16:13:53;;;;;;;11.93;4.00;;;29.80;99.90;;;;;;5084781;28;20020;-59
2023/07/25 16:16:20;;;;;;;11.50;3.28;;;29.90;99.90;;;;;;5101948;28;20037;-60
2023/07/25 16:18:45;;;;;;;9.00;3.78;;;29.90;99.90;;;;;;5081245;28;20040;-59
2023/07/25 16:21:11;;;;;;;10.82;3.42;;;29.90;99.90;;;;;;5080051;28;20085;-59